sensor_id;sensor_type;location;lat;lon;timestamp;temperature;humidity
47861;HTU21D;33620;52.340;5.984;2023-06-04T00:02:25;16.22;49.56
47861;HTU21D;33620;52.340;5.984;2023-06-04T00:04:50;16.21;49.85
47861;HTU21D;33620;52.340;5.984;2023-06-04T00:07:15;16.21;49.85
47861;HTU21D;33620;52.340;5.984;2023-06-04T00:09:41;16.19;49.69
47861;HTU21D;33620;52.340;5.984;2023-06-04T00:12:07;16.19;49.60
47861;HTU21D;33620;52.340;5.984;2023-06-04T00:14:32;16.18;49.89
47861;HTU21D;33620;52.340;5.984;2023-06-04T00:16:57;16.14;49.76
47861;HTU21D;33620;52.340;5.984;2023-06-04T00:19:23;16.10;50.11
47861;HTU21D;33620;52.340;5.984;2023-06-04T00:21:48;16.05;50.10
47861;HTU21D;33620;52.340;5.984;2023-06-04T00:24:14;16.05;50.15
47861;HTU21D;33620;52.340;5.984;2023-06-04T00:26:39;16.05;50.30
47861;HTU21D;33620;52.340;5.984;2023-06-04T00:29:05;16.05;50.02
47861;HTU21D;33620;52.340;5.984;2023-06-04T00:31:30;16.03;50.28
47861;HTU21D;33620;52.340;5.984;2023-06-04T00:33:55;16.00;50.29
47861;HTU21D;33620;52.340;5.984;2023-06-04T00:36:21;15.96;50.15
47861;HTU21D;33620;52.340;5.984;2023-06-04T00:38:46;15.95;50.00
47861;HTU21D;33620;52.340;5.984;2023-06-04T00:41:12;15.95;50.08
47861;HTU21D;33620;52.340;5.984;2023-06-04T00:43:37;15.92;50.29
47861;HTU21D;33620;52.340;5.984;2023-06-04T00:46:02;15.87;50.43
47861;HTU21D;33620;52.340;5.984;2023-06-04T00:48:29;15.85;50.53
47861;HTU21D;33620;52.340;5.984;2023-06-04T00:50:56;15.85;50.58
47861;HTU21D;33620;52.340;5.984;2023-06-04T00:53:23;15.85;50.54
47861;HTU21D;33620;52.340;5.984;2023-06-04T00:55:49;15.84;50.58
47861;HTU21D;33620;52.340;5.984;2023-06-04T00:58:14;15.76;50.97
47861;HTU21D;33620;52.340;5.984;2023-06-04T01:00:41;15.70;51.35
47861;HTU21D;33620;52.340;5.984;2023-06-04T01:03:11;15.62;51.91
47861;HTU21D;33620;52.340;5.984;2023-06-04T01:05:50;15.58;51.48
47861;HTU21D;33620;52.340;5.984;2023-06-04T01:08:18;15.57;51.86
47861;HTU21D;33620;52.340;5.984;2023-06-04T01:10:55;15.53;51.79
47861;HTU21D;33620;52.340;5.984;2023-06-04T01:13:22;15.52;51.61
47861;HTU21D;33620;52.340;5.984;2023-06-04T01:15:47;15.49;52.07
47861;HTU21D;33620;52.340;5.984;2023-06-04T01:18:27;15.49;51.63
47861;HTU21D;33620;52.340;5.984;2023-06-04T01:21:06;15.51;51.59
47861;HTU21D;33620;52.340;5.984;2023-06-04T01:23:36;15.45;52.05
47861;HTU21D;33620;52.340;5.984;2023-06-04T01:26:04;15.37;52.48
47861;HTU21D;33620;52.340;5.984;2023-06-04T01:28:32;15.28;52.53
47861;HTU21D;33620;52.340;5.984;2023-06-04T01:31:00;15.27;52.53
47861;HTU21D;33620;52.340;5.984;2023-06-04T01:33:27;15.26;52.17
47861;HTU21D;33620;52.340;5.984;2023-06-04T01:35:52;15.24;52.68
47861;HTU21D;33620;52.340;5.984;2023-06-04T01:38:18;15.19;52.98
47861;HTU21D;33620;52.340;5.984;2023-06-04T01:40:44;15.14;53.17
47861;HTU21D;33620;52.340;5.984;2023-06-04T01:43:09;15.03;53.43
47861;HTU21D;33620;52.340;5.984;2023-06-04T01:45:35;14.95;53.68
47861;HTU21D;33620;52.340;5.984;2023-06-04T01:48:02;14.94;53.48
47861;HTU21D;33620;52.340;5.984;2023-06-04T01:50:28;14.97;53.27
47861;HTU21D;33620;52.340;5.984;2023-06-04T01:52:54;14.93;53.63
47861;HTU21D;33620;52.340;5.984;2023-06-04T01:55:20;14.92;53.50
47861;HTU21D;33620;52.340;5.984;2023-06-04T01:57:46;14.89;53.82
47861;HTU21D;33620;52.340;5.984;2023-06-04T02:00:13;14.88;54.08
47861;HTU21D;33620;52.340;5.984;2023-06-04T02:02:39;14.86;54.17
47861;HTU21D;33620;52.340;5.984;2023-06-04T02:05:08;14.89;54.09
47861;HTU21D;33620;52.340;5.984;2023-06-04T02:07:35;14.86;54.15
47861;HTU21D;33620;52.340;5.984;2023-06-04T02:10:04;14.78;54.56
47861;HTU21D;33620;52.340;5.984;2023-06-04T02:12:30;14.72;54.89
47861;HTU21D;33620;52.340;5.984;2023-06-04T02:14:55;14.68;55.07
47861;HTU21D;33620;52.340;5.984;2023-06-04T02:17:21;14.65;55.37
47861;HTU21D;33620;52.340;5.984;2023-06-04T02:19:46;14.58;55.77
47861;HTU21D;33620;52.340;5.984;2023-06-04T02:22:17;14.58;55.63
47861;HTU21D;33620;52.340;5.984;2023-06-04T02:24:42;14.65;55.50
47861;HTU21D;33620;52.340;5.984;2023-06-04T02:27:08;14.65;55.72
47861;HTU21D;33620;52.340;5.984;2023-06-04T02:29:34;14.64;55.71
47861;HTU21D;33620;52.340;5.984;2023-06-04T02:32:01;14.64;55.78
47861;HTU21D;33620;52.340;5.984;2023-06-04T02:34:26;14.57;55.87
47861;HTU21D;33620;52.340;5.984;2023-06-04T02:36:52;14.56;56.19
47861;HTU21D;33620;52.340;5.984;2023-06-04T02:39:18;14.52;56.63
47861;HTU21D;33620;52.340;5.984;2023-06-04T02:41:44;14.49;56.66
47861;HTU21D;33620;52.340;5.984;2023-06-04T02:44:09;14.44;57.01
47861;HTU21D;33620;52.340;5.984;2023-06-04T02:46:35;14.45;57.10
47861;HTU21D;33620;52.340;5.984;2023-06-04T02:49:00;14.41;57.39
47861;HTU21D;33620;52.340;5.984;2023-06-04T02:51:25;14.37;57.86
47861;HTU21D;33620;52.340;5.984;2023-06-04T02:53:51;14.34;57.99
47861;HTU21D;33620;52.340;5.984;2023-06-04T02:56:17;14.34;58.31
47861;HTU21D;33620;52.340;5.984;2023-06-04T02:58:55;14.34;58.24
47861;HTU21D;33620;52.340;5.984;2023-06-04T03:01:25;14.33;58.58
47861;HTU21D;33620;52.340;5.984;2023-06-04T03:03:51;14.29;58.74
47861;HTU21D;33620;52.340;5.984;2023-06-04T03:06:18;14.25;59.18
47861;HTU21D;33620;52.340;5.984;2023-06-04T03:08:46;14.25;59.48
47861;HTU21D;33620;52.340;5.984;2023-06-04T03:11:12;14.30;59.39
47861;HTU21D;33620;52.340;5.984;2023-06-04T03:13:37;14.32;59.59
47861;HTU21D;33620;52.340;5.984;2023-06-04T03:16:03;14.35;59.68
47861;HTU21D;33620;52.340;5.984;2023-06-04T03:18:37;14.28;59.88
47861;HTU21D;33620;52.340;5.984;2023-06-04T03:21:04;14.21;60.12
47861;HTU21D;33620;52.340;5.984;2023-06-04T03:23:30;14.20;60.46
47861;HTU21D;33620;52.340;5.984;2023-06-04T03:25:56;14.12;60.93
47861;HTU21D;33620;52.340;5.984;2023-06-04T03:28:21;14.11;61.12
47861;HTU21D;33620;52.340;5.984;2023-06-04T03:30:47;14.11;61.14
47861;HTU21D;33620;52.340;5.984;2023-06-04T03:33:12;14.10;61.32
47861;HTU21D;33620;52.340;5.984;2023-06-04T03:35:40;14.10;61.17
47861;HTU21D;33620;52.340;5.984;2023-06-04T03:38:06;14.05;61.86
47861;HTU21D;33620;52.340;5.984;2023-06-04T03:40:31;14.04;61.70
47861;HTU21D;33620;52.340;5.984;2023-06-04T03:42:56;14.03;62.24
47861;HTU21D;33620;52.340;5.984;2023-06-04T03:45:22;14.07;62.51
47861;HTU21D;33620;52.340;5.984;2023-06-04T03:47:47;14.11;62.57
47861;HTU21D;33620;52.340;5.984;2023-06-04T03:50:12;14.12;62.67
47861;HTU21D;33620;52.340;5.984;2023-06-04T03:52:38;14.10;62.98
47861;HTU21D;33620;52.340;5.984;2023-06-04T03:55:03;14.11;63.02
47861;HTU21D;33620;52.340;5.984;2023-06-04T03:57:29;14.06;63.24
47861;HTU21D;33620;52.340;5.984;2023-06-04T03:59:54;14.06;63.44
47861;HTU21D;33620;52.340;5.984;2023-06-04T04:02:20;14.00;63.77
47861;HTU21D;33620;52.340;5.984;2023-06-04T04:04:46;14.00;64.01
47861;HTU21D;33620;52.340;5.984;2023-06-04T04:07:11;13.96;64.27
47861;HTU21D;33620;52.340;5.984;2023-06-04T04:09:37;13.91;64.67
47861;HTU21D;33620;52.340;5.984;2023-06-04T04:12:03;13.93;64.72
47861;HTU21D;33620;52.340;5.984;2023-06-04T04:14:28;13.93;64.88
47861;HTU21D;33620;52.340;5.984;2023-06-04T04:16:54;13.93;65.21
47861;HTU21D;33620;52.340;5.984;2023-06-04T04:19:19;13.95;64.91
47861;HTU21D;33620;52.340;5.984;2023-06-04T04:21:45;13.93;65.30
47861;HTU21D;33620;52.340;5.984;2023-06-04T04:24:24;13.92;66.09
47861;HTU21D;33620;52.340;5.984;2023-06-04T04:26:51;13.96;66.61
47861;HTU21D;33620;52.340;5.984;2023-06-04T04:29:20;13.99;66.58
47861;HTU21D;33620;52.340;5.984;2023-06-04T04:31:52;14.04;66.76
47861;HTU21D;33620;52.340;5.984;2023-06-04T04:34:18;14.05;66.42
47861;HTU21D;33620;52.340;5.984;2023-06-04T04:36:47;14.04;67.23
47861;HTU21D;33620;52.340;5.984;2023-06-04T04:39:22;14.08;67.31
47861;HTU21D;33620;52.340;5.984;2023-06-04T04:41:48;14.11;67.43
47861;HTU21D;33620;52.340;5.984;2023-06-04T04:44:13;14.13;67.57
47861;HTU21D;33620;52.340;5.984;2023-06-04T04:46:38;14.19;67.37
47861;HTU21D;33620;52.340;5.984;2023-06-04T04:49:04;14.18;67.54
47861;HTU21D;33620;52.340;5.984;2023-06-04T04:51:29;14.19;67.67
47861;HTU21D;33620;52.340;5.984;2023-06-04T04:53:55;14.22;67.58
47861;HTU21D;33620;52.340;5.984;2023-06-04T04:56:20;14.23;67.47
47861;HTU21D;33620;52.340;5.984;2023-06-04T04:58:48;14.29;67.55
47861;HTU21D;33620;52.340;5.984;2023-06-04T05:01:13;14.30;67.58
47861;HTU21D;33620;52.340;5.984;2023-06-04T05:03:38;14.34;67.54
47861;HTU21D;33620;52.340;5.984;2023-06-04T05:06:03;14.37;67.41
47861;HTU21D;33620;52.340;5.984;2023-06-04T05:08:29;14.40;67.48
47861;HTU21D;33620;52.340;5.984;2023-06-04T05:10:54;14.41;67.41
47861;HTU21D;33620;52.340;5.984;2023-06-04T05:13:20;14.42;67.65
47861;HTU21D;33620;52.340;5.984;2023-06-04T05:15:45;14.42;67.60
47861;HTU21D;33620;52.340;5.984;2023-06-04T05:18:13;14.39;67.67
47861;HTU21D;33620;52.340;5.984;2023-06-04T05:20:38;14.41;67.93
47861;HTU21D;33620;52.340;5.984;2023-06-04T05:23:04;14.47;67.99
47861;HTU21D;33620;52.340;5.984;2023-06-04T05:25:29;14.49;67.94
47861;HTU21D;33620;52.340;5.984;2023-06-04T05:27:58;14.48;68.07
47861;HTU21D;33620;52.340;5.984;2023-06-04T05:30:23;14.44;68.23
47861;HTU21D;33620;52.340;5.984;2023-06-04T05:32:49;14.40;68.53
47861;HTU21D;33620;52.340;5.984;2023-06-04T05:35:16;14.42;68.49
47861;HTU21D;33620;52.340;5.984;2023-06-04T05:37:41;14.49;68.44
47861;HTU21D;33620;52.340;5.984;2023-06-04T05:40:08;14.54;68.31
47861;HTU21D;33620;52.340;5.984;2023-06-04T05:42:34;14.59;68.26
47861;HTU21D;33620;52.340;5.984;2023-06-04T05:44:59;14.67;68.09
47861;HTU21D;33620;52.340;5.984;2023-06-04T05:47:25;14.73;67.88
47861;HTU21D;33620;52.340;5.984;2023-06-04T05:49:50;14.80;67.46
47861;HTU21D;33620;52.340;5.984;2023-06-04T05:52:16;14.83;67.21
47861;HTU21D;33620;52.340;5.984;2023-06-04T05:54:41;14.88;66.69
47861;HTU21D;33620;52.340;5.984;2023-06-04T05:57:06;14.83;66.58
47861;HTU21D;33620;52.340;5.984;2023-06-04T05:59:32;14.84;67.01
47861;HTU21D;33620;52.340;5.984;2023-06-04T06:01:57;14.86;66.94
47861;HTU21D;33620;52.340;5.984;2023-06-04T06:04:23;14.93;66.65
47861;HTU21D;33620;52.340;5.984;2023-06-04T06:06:48;14.91;66.62
47861;HTU21D;33620;52.340;5.984;2023-06-04T06:09:15;14.85;66.33
47861;HTU21D;33620;52.340;5.984;2023-06-04T06:11:41;14.88;66.62
47861;HTU21D;33620;52.340;5.984;2023-06-04T06:14:07;14.94;66.63
47861;HTU21D;33620;52.340;5.984;2023-06-04T06:16:32;15.01;66.36
47861;HTU21D;33620;52.340;5.984;2023-06-04T06:18:58;15.07;65.87
47861;HTU21D;33620;52.340;5.984;2023-06-04T06:21:23;15.08;65.92
47861;HTU21D;33620;52.340;5.984;2023-06-04T06:23:49;15.04;64.50
47861;HTU21D;33620;52.340;5.984;2023-06-04T06:26:14;15.00;65.02
47861;HTU21D;33620;52.340;5.984;2023-06-04T06:28:41;14.98;64.57
47861;HTU21D;33620;52.340;5.984;2023-06-04T06:31:06;15.00;64.32
47861;HTU21D;33620;52.340;5.984;2023-06-04T06:33:32;14.96;64.53
47861;HTU21D;33620;52.340;5.984;2023-06-04T06:35:57;15.01;64.66
47861;HTU21D;33620;52.340;5.984;2023-06-04T06:38:25;15.10;64.24
47861;HTU21D;33620;52.340;5.984;2023-06-04T06:40:51;15.13;63.79
47861;HTU21D;33620;52.340;5.984;2023-06-04T06:43:16;15.16;63.65
47861;HTU21D;33620;52.340;5.984;2023-06-04T06:45:41;15.17;63.82
47861;HTU21D;33620;52.340;5.984;2023-06-04T06:48:07;15.22;63.51
47861;HTU21D;33620;52.340;5.984;2023-06-04T06:50:32;15.31;63.92
47861;HTU21D;33620;52.340;5.984;2023-06-04T06:53:01;15.36;64.10
47861;HTU21D;33620;52.340;5.984;2023-06-04T06:55:26;15.43;64.11
47861;HTU21D;33620;52.340;5.984;2023-06-04T06:57:51;15.47;63.02
47861;HTU21D;33620;52.340;5.984;2023-06-04T07:00:17;15.47;63.10
47861;HTU21D;33620;52.340;5.984;2023-06-04T07:02:43;15.47;62.82
47861;HTU21D;33620;52.340;5.984;2023-06-04T07:05:09;15.54;62.61
47861;HTU21D;33620;52.340;5.984;2023-06-04T07:07:34;15.54;61.88
47861;HTU21D;33620;52.340;5.984;2023-06-04T07:10:00;15.58;62.24
47861;HTU21D;33620;52.340;5.984;2023-06-04T07:12:26;15.63;61.85
47861;HTU21D;33620;52.340;5.984;2023-06-04T07:14:51;15.68;61.90
47861;HTU21D;33620;52.340;5.984;2023-06-04T07:17:16;15.71;61.99
47861;HTU21D;33620;52.340;5.984;2023-06-04T07:19:42;15.76;62.63
47861;HTU21D;33620;52.340;5.984;2023-06-04T07:22:07;15.86;62.69
47861;HTU21D;33620;52.340;5.984;2023-06-04T07:24:32;15.91;61.35
47861;HTU21D;33620;52.340;5.984;2023-06-04T07:26:58;15.95;60.59
47861;HTU21D;33620;52.340;5.984;2023-06-04T07:29:23;15.98;60.96
47861;HTU21D;33620;52.340;5.984;2023-06-04T07:31:48;16.04;60.24
47861;HTU21D;33620;52.340;5.984;2023-06-04T07:34:14;16.05;59.57
47861;HTU21D;33620;52.340;5.984;2023-06-04T07:36:40;16.10;60.13
47861;HTU21D;33620;52.340;5.984;2023-06-04T07:39:05;16.15;59.86
47861;HTU21D;33620;52.340;5.984;2023-06-04T07:41:30;16.20;59.14
47861;HTU21D;33620;52.340;5.984;2023-06-04T07:43:56;16.26;59.01
47861;HTU21D;33620;52.340;5.984;2023-06-04T07:46:21;16.31;59.03
47861;HTU21D;33620;52.340;5.984;2023-06-04T07:48:46;16.33;58.50
47861;HTU21D;33620;52.340;5.984;2023-06-04T07:51:13;16.40;58.51
47861;HTU21D;33620;52.340;5.984;2023-06-04T07:53:39;16.46;59.51
47861;HTU21D;33620;52.340;5.984;2023-06-04T07:56:05;16.56;59.16
47861;HTU21D;33620;52.340;5.984;2023-06-04T07:58:31;16.62;58.54
47861;HTU21D;33620;52.340;5.984;2023-06-04T08:00:56;16.69;58.19
47861;HTU21D;33620;52.340;5.984;2023-06-04T08:03:22;16.74;57.06
47861;HTU21D;33620;52.340;5.984;2023-06-04T08:05:48;16.79;56.71
47861;HTU21D;33620;52.340;5.984;2023-06-04T08:08:13;16.86;56.29
47861;HTU21D;33620;52.340;5.984;2023-06-04T08:10:39;16.93;56.83
47861;HTU21D;33620;52.340;5.984;2023-06-04T08:13:05;17.01;54.84
47861;HTU21D;33620;52.340;5.984;2023-06-04T08:15:30;17.11;55.88
47861;HTU21D;33620;52.340;5.984;2023-06-04T08:17:56;17.22;54.68
47861;HTU21D;33620;52.340;5.984;2023-06-04T08:20:23;17.34;54.37
47861;HTU21D;33620;52.340;5.984;2023-06-04T08:22:48;17.48;53.65
47861;HTU21D;33620;52.340;5.984;2023-06-04T08:25:13;17.63;54.10
47861;HTU21D;33620;52.340;5.984;2023-06-04T08:27:39;17.75;51.12
47861;HTU21D;33620;52.340;5.984;2023-06-04T08:30:05;17.88;51.45
47861;HTU21D;33620;52.340;5.984;2023-06-04T08:32:31;18.04;52.36
47861;HTU21D;33620;52.340;5.984;2023-06-04T08:34:56;18.21;51.70
47861;HTU21D;33620;52.340;5.984;2023-06-04T08:37:21;18.34;50.10
47861;HTU21D;33620;52.340;5.984;2023-06-04T08:39:49;18.43;48.73
47861;HTU21D;33620;52.340;5.984;2023-06-04T08:42:31;18.58;49.05
47861;HTU21D;33620;52.340;5.984;2023-06-04T08:45:00;18.77;48.64
47861;HTU21D;33620;52.340;5.984;2023-06-04T08:47:25;18.89;48.19
47861;HTU21D;33620;52.340;5.984;2023-06-04T08:49:52;19.01;48.04
47861;HTU21D;33620;52.340;5.984;2023-06-04T08:52:18;19.16;47.02
47861;HTU21D;33620;52.340;5.984;2023-06-04T08:54:48;19.26;46.20
47861;HTU21D;33620;52.340;5.984;2023-06-04T08:57:14;19.27;45.43
47861;HTU21D;33620;52.340;5.984;2023-06-04T08:59:40;19.40;46.09
47861;HTU21D;33620;52.340;5.984;2023-06-04T09:02:06;19.53;46.22
47861;HTU21D;33620;52.340;5.984;2023-06-04T09:04:32;19.68;46.33
47861;HTU21D;33620;52.340;5.984;2023-06-04T09:07:00;19.72;45.24
47861;HTU21D;33620;52.340;5.984;2023-06-04T09:09:26;19.79;45.04
47861;HTU21D;33620;52.340;5.984;2023-06-04T09:11:55;19.75;44.00
47861;HTU21D;33620;52.340;5.984;2023-06-04T09:14:22;19.90;44.12
47861;HTU21D;33620;52.340;5.984;2023-06-04T09:16:48;20.06;44.51
47861;HTU21D;33620;52.340;5.984;2023-06-04T09:19:14;20.19;44.43
47861;HTU21D;33620;52.340;5.984;2023-06-04T09:21:55;20.30;44.10
47861;HTU21D;33620;52.340;5.984;2023-06-04T09:24:23;20.33;44.00
47861;HTU21D;33620;52.340;5.984;2023-06-04T09:26:49;20.42;42.36
47861;HTU21D;33620;52.340;5.984;2023-06-04T09:29:15;20.36;41.97
47861;HTU21D;33620;52.340;5.984;2023-06-04T09:31:41;20.44;42.00
47861;HTU21D;33620;52.340;5.984;2023-06-04T09:34:07;20.49;42.45
47861;HTU21D;33620;52.340;5.984;2023-06-04T09:36:33;20.62;43.18
47861;HTU21D;33620;52.340;5.984;2023-06-04T09:39:01;20.73;42.45
47861;HTU21D;33620;52.340;5.984;2023-06-04T09:41:27;20.83;41.83
47861;HTU21D;33620;52.340;5.984;2023-06-04T09:44:02;20.81;40.97
47861;HTU21D;33620;52.340;5.984;2023-06-04T09:46:28;20.86;39.19
47861;HTU21D;33620;52.340;5.984;2023-06-04T09:49:02;20.79;38.36
47861;HTU21D;33620;52.340;5.984;2023-06-04T09:51:28;20.79;38.56
47861;HTU21D;33620;52.340;5.984;2023-06-04T09:53:55;20.80;39.18
47861;HTU21D;33620;52.340;5.984;2023-06-04T09:56:22;20.96;39.68
47861;HTU21D;33620;52.340;5.984;2023-06-04T09:58:49;21.10;39.45
47861;HTU21D;33620;52.340;5.984;2023-06-04T10:01:15;21.24;39.40
47861;HTU21D;33620;52.340;5.984;2023-06-04T10:03:44;21.37;38.43
47861;HTU21D;33620;52.340;5.984;2023-06-04T10:06:14;21.51;38.55
47861;HTU21D;33620;52.340;5.984;2023-06-04T10:08:42;21.58;37.01
47861;HTU21D;33620;52.340;5.984;2023-06-04T10:11:09;21.61;35.68
47861;HTU21D;33620;52.340;5.984;2023-06-04T10:16:28;21.52;36.12
47861;HTU21D;33620;52.340;5.984;2023-06-04T10:18:55;21.65;35.70
47861;HTU21D;33620;52.340;5.984;2023-06-04T10:21:22;21.73;35.67
47861;HTU21D;33620;52.340;5.984;2023-06-04T10:23:49;21.80;34.95
47861;HTU21D;33620;52.340;5.984;2023-06-04T10:26:15;21.76;34.90
47861;HTU21D;33620;52.340;5.984;2023-06-04T10:28:42;21.77;34.67
47861;HTU21D;33620;52.340;5.984;2023-06-04T10:31:11;21.87;35.05
47861;HTU21D;33620;52.340;5.984;2023-06-04T10:33:37;21.93;34.54
47861;HTU21D;33620;52.340;5.984;2023-06-04T10:36:19;21.99;36.13
47861;HTU21D;33620;52.340;5.984;2023-06-04T10:38:55;22.12;35.22
47861;HTU21D;33620;52.340;5.984;2023-06-04T10:41:21;22.14;33.66
47861;HTU21D;33620;52.340;5.984;2023-06-04T10:43:59;22.22;34.49
47861;HTU21D;33620;52.340;5.984;2023-06-04T10:46:25;22.28;34.38
47861;HTU21D;33620;52.340;5.984;2023-06-04T10:48:52;22.25;34.36
47861;HTU21D;33620;52.340;5.984;2023-06-04T10:51:33;22.20;34.50
47861;HTU21D;33620;52.340;5.984;2023-06-04T10:54:01;22.25;34.31
47861;HTU21D;33620;52.340;5.984;2023-06-04T10:56:28;22.27;33.54
47861;HTU21D;33620;52.340;5.984;2023-06-04T10:58:54;22.26;33.70
47861;HTU21D;33620;52.340;5.984;2023-06-04T11:01:29;22.41;33.56
47861;HTU21D;33620;52.340;5.984;2023-06-04T11:03:56;22.58;35.08
47861;HTU21D;33620;52.340;5.984;2023-06-04T11:06:23;22.66;33.72
47861;HTU21D;33620;52.340;5.984;2023-06-04T11:09:03;22.61;33.55
47861;HTU21D;33620;52.340;5.984;2023-06-04T11:11:30;22.76;34.34
47861;HTU21D;33620;52.340;5.984;2023-06-04T11:14:07;22.90;34.63
47861;HTU21D;33620;52.340;5.984;2023-06-04T11:16:32;22.94;33.87
47861;HTU21D;33620;52.340;5.984;2023-06-04T11:18:58;23.03;34.46
47861;HTU21D;33620;52.340;5.984;2023-06-04T11:21:27;22.99;34.53
47861;HTU21D;33620;52.340;5.984;2023-06-04T11:23:59;23.03;33.60
47861;HTU21D;33620;52.340;5.984;2023-06-04T11:26:35;23.13;33.44
47861;HTU21D;33620;52.340;5.984;2023-06-04T11:29:06;23.16;34.12
47861;HTU21D;33620;52.340;5.984;2023-06-04T11:31:41;23.10;32.37
47861;HTU21D;33620;52.340;5.984;2023-06-04T11:34:07;23.14;34.55
47861;HTU21D;33620;52.340;5.984;2023-06-04T11:36:33;23.20;34.41
47861;HTU21D;33620;52.340;5.984;2023-06-04T11:39:00;23.27;33.20
47861;HTU21D;33620;52.340;5.984;2023-06-04T11:41:33;23.32;32.59
47861;HTU21D;33620;52.340;5.984;2023-06-04T11:44:02;23.42;32.95
47861;HTU21D;33620;52.340;5.984;2023-06-04T11:46:28;23.43;33.47
47861;HTU21D;33620;52.340;5.984;2023-06-04T11:48:54;23.47;31.37
47861;HTU21D;33620;52.340;5.984;2023-06-04T11:51:23;23.49;33.96
47861;HTU21D;33620;52.340;5.984;2023-06-04T11:53:48;23.44;31.25
47861;HTU21D;33620;52.340;5.984;2023-06-04T11:56:15;23.55;33.01
47861;HTU21D;33620;52.340;5.984;2023-06-04T11:58:40;23.61;32.68
47861;HTU21D;33620;52.340;5.984;2023-06-04T12:01:09;23.58;31.14
47861;HTU21D;33620;52.340;5.984;2023-06-04T12:03:39;23.70;32.51
47861;HTU21D;33620;52.340;5.984;2023-06-04T12:06:15;23.82;31.54
47861;HTU21D;33620;52.340;5.984;2023-06-04T12:08:54;23.83;30.23
47861;HTU21D;33620;52.340;5.984;2023-06-04T12:11:31;23.83;30.94
47861;HTU21D;33620;52.340;5.984;2023-06-04T12:13:58;23.81;31.51
47861;HTU21D;33620;52.340;5.984;2023-06-04T12:16:24;23.86;30.92
47861;HTU21D;33620;52.340;5.984;2023-06-04T12:18:50;23.89;30.98
47861;HTU21D;33620;52.340;5.984;2023-06-04T12:21:24;23.92;31.11
47861;HTU21D;33620;52.340;5.984;2023-06-04T12:23:54;23.98;31.92
47861;HTU21D;33620;52.340;5.984;2023-06-04T12:26:30;23.99;32.38
47861;HTU21D;33620;52.340;5.984;2023-06-04T12:29:01;23.88;32.56
47861;HTU21D;33620;52.340;5.984;2023-06-04T12:31:27;23.94;32.39
47861;HTU21D;33620;52.340;5.984;2023-06-04T12:34:00;23.95;33.76
47861;HTU21D;33620;52.340;5.984;2023-06-04T12:36:26;23.94;33.34
47861;HTU21D;33620;52.340;5.984;2023-06-04T12:38:51;24.02;33.27
47861;HTU21D;33620;52.340;5.984;2023-06-04T12:41:16;24.00;32.17
47861;HTU21D;33620;52.340;5.984;2023-06-04T12:43:42;24.01;33.88
47861;HTU21D;33620;52.340;5.984;2023-06-04T12:46:07;24.05;33.22
47861;HTU21D;33620;52.340;5.984;2023-06-04T12:48:33;23.97;33.09
47861;HTU21D;33620;52.340;5.984;2023-06-04T12:50:58;23.87;32.60
47861;HTU21D;33620;52.340;5.984;2023-06-04T12:53:24;23.99;33.45
47861;HTU21D;33620;52.340;5.984;2023-06-04T12:55:49;24.03;32.86
47861;HTU21D;33620;52.340;5.984;2023-06-04T12:58:15;23.96;32.21
47861;HTU21D;33620;52.340;5.984;2023-06-04T13:00:42;23.99;32.23
47861;HTU21D;33620;52.340;5.984;2023-06-04T13:03:07;23.89;32.26
47861;HTU21D;33620;52.340;5.984;2023-06-04T13:05:33;23.85;32.22
47861;HTU21D;33620;52.340;5.984;2023-06-04T13:07:59;23.79;32.41
47861;HTU21D;33620;52.340;5.984;2023-06-04T13:10:26;23.86;33.12
47861;HTU21D;33620;52.340;5.984;2023-06-04T13:12:51;23.95;33.11
47861;HTU21D;33620;52.340;5.984;2023-06-04T13:15:17;23.92;32.41
47861;HTU21D;33620;52.340;5.984;2023-06-04T13:17:42;23.91;32.90
47861;HTU21D;33620;52.340;5.984;2023-06-04T13:20:08;23.94;33.04
47861;HTU21D;33620;52.340;5.984;2023-06-04T13:22:34;23.95;33.29
47861;HTU21D;33620;52.340;5.984;2023-06-04T13:25:00;23.95;33.21
47861;HTU21D;33620;52.340;5.984;2023-06-04T13:27:25;23.97;32.31
47861;HTU21D;33620;52.340;5.984;2023-06-04T13:29:51;24.12;33.32
47861;HTU21D;33620;52.340;5.984;2023-06-04T13:32:16;24.20;32.25
47861;HTU21D;33620;52.340;5.984;2023-06-04T13:34:41;24.25;32.31
47861;HTU21D;33620;52.340;5.984;2023-06-04T13:37:07;24.23;32.14
47861;HTU21D;33620;52.340;5.984;2023-06-04T13:39:36;24.31;32.64
47861;HTU21D;33620;52.340;5.984;2023-06-04T13:42:01;24.36;31.93
47861;HTU21D;33620;52.340;5.984;2023-06-04T13:44:26;24.27;32.52
47861;HTU21D;33620;52.340;5.984;2023-06-04T13:46:53;24.29;30.67
47861;HTU21D;33620;52.340;5.984;2023-06-04T13:49:19;24.20;32.88
47861;HTU21D;33620;52.340;5.984;2023-06-04T13:51:44;24.33;31.84
47861;HTU21D;33620;52.340;5.984;2023-06-04T13:54:10;24.30;32.94
47861;HTU21D;33620;52.340;5.984;2023-06-04T13:56:35;24.29;32.38
47861;HTU21D;33620;52.340;5.984;2023-06-04T13:59:01;24.33;32.51
47861;HTU21D;33620;52.340;5.984;2023-06-04T14:01:26;24.33;32.01
47861;HTU21D;33620;52.340;5.984;2023-06-04T14:03:51;24.31;31.16
47861;HTU21D;33620;52.340;5.984;2023-06-04T14:06:17;24.36;32.14
47861;HTU21D;33620;52.340;5.984;2023-06-04T14:08:43;24.41;32.80
47861;HTU21D;33620;52.340;5.984;2023-06-04T14:11:08;24.48;31.89
47861;HTU21D;33620;52.340;5.984;2023-06-04T14:13:33;24.56;32.70
47861;HTU21D;33620;52.340;5.984;2023-06-04T14:15:59;24.61;31.60
47861;HTU21D;33620;52.340;5.984;2023-06-04T14:18:24;24.69;30.99
47861;HTU21D;33620;52.340;5.984;2023-06-04T14:20:50;24.74;31.48
47861;HTU21D;33620;52.340;5.984;2023-06-04T14:23:15;24.70;31.52
47861;HTU21D;33620;52.340;5.984;2023-06-04T14:25:41;24.73;31.43
47861;HTU21D;33620;52.340;5.984;2023-06-04T14:28:07;24.70;31.40
47861;HTU21D;33620;52.340;5.984;2023-06-04T14:30:32;24.70;32.00
47861;HTU21D;33620;52.340;5.984;2023-06-04T14:32:58;24.69;30.35
47861;HTU21D;33620;52.340;5.984;2023-06-04T14:35:23;24.70;32.15
47861;HTU21D;33620;52.340;5.984;2023-06-04T14:37:48;24.66;31.06
47861;HTU21D;33620;52.340;5.984;2023-06-04T14:40:14;24.57;30.25
47861;HTU21D;33620;52.340;5.984;2023-06-04T14:42:39;24.50;31.14
47861;HTU21D;33620;52.340;5.984;2023-06-04T14:45:05;24.60;31.13
47861;HTU21D;33620;52.340;5.984;2023-06-04T14:47:31;24.49;30.79
47861;HTU21D;33620;52.340;5.984;2023-06-04T14:49:56;24.55;30.64
47861;HTU21D;33620;52.340;5.984;2023-06-04T14:52:21;24.57;30.79
47861;HTU21D;33620;52.340;5.984;2023-06-04T14:54:47;24.60;31.47
47861;HTU21D;33620;52.340;5.984;2023-06-04T14:57:12;24.58;30.42
47861;HTU21D;33620;52.340;5.984;2023-06-04T14:59:39;24.53;30.51
47861;HTU21D;33620;52.340;5.984;2023-06-04T15:02:05;24.57;31.98
47861;HTU21D;33620;52.340;5.984;2023-06-04T15:04:30;24.64;31.12
47861;HTU21D;33620;52.340;5.984;2023-06-04T15:06:56;24.66;31.03
47861;HTU21D;33620;52.340;5.984;2023-06-04T15:09:21;24.53;30.60
47861;HTU21D;33620;52.340;5.984;2023-06-04T15:11:46;24.53;33.38
47861;HTU21D;33620;52.340;5.984;2023-06-04T15:14:12;24.65;31.80
47861;HTU21D;33620;52.340;5.984;2023-06-04T15:16:37;24.72;32.15